Time;durP1;ratioP1;P1;durP2;ratioP2;P2;SDS_P1;SDS_P2;PMS_P1;PMS_P2;Temp;Humidity;BMP_temperature;BMP_pressure;BME280_temperature;BME280_humidity;BME280_pressure;Samples;Min_cycle;Max_cycle;Signal;HPM_P1;HPM_P2
2022/02/20 00:00:45;;;;;;;;;;;;;;;19.34;58.24;101049.81;5036077;28;1910;-34
2022/02/20 00:03:11;;;;;;;;;;;;;;;19.34;58.21;101052.50;5036061;28;1483;-33
2022/02/20 00:05:39;;;;;;;;;;;;;;;19.32;58.07;101035.69;5035976;28;1905;-33
2022/02/20 00:08:06;;;;;;;;;;;;;;;19.32;58.71;101037.50;5034856;28;1628;-33
2022/02/20 00:10:32;;;;;;;;;;;;;;;19.31;57.95;101039.34;5036027;28;1864;-33
2022/02/20 00:13:00;;;;;;;;;;;;;;;19.30;58.24;101053.75;5036338;28;1710;-33
2022/02/20 00:15:27;;;;;;;;;;;;;;;19.32;58.71;101057.13;5036097;28;1697;-33
2022/02/20 00:17:54;;;;;;;;;;;;;;;19.29;58.32;101046.66;5033610;28;2068;-34
2022/02/20 00:20:21;;;;;;;;;;;;;;;19.29;58.35;101038.63;5035493;28;1056;-33
2022/02/20 00:22:49;;;;;;;;;;;;;;;19.27;57.92;101048.63;5034360;28;1910;-33
2022/02/20 00:25:16;;;;;;;;;;;;;;;19.26;58.83;101041.56;5035228;28;1534;-33
2022/02/20 00:27:42;;;;;;;;;;;;;;;19.28;58.21;101050.34;5036104;28;1056;-33
2022/02/20 00:30:09;;;;;;;;;;;;;;;19.30;58.52;101069.81;5035756;28;2012;-34
2022/02/20 00:32:35;;;;;;;;;;;;;;;19.27;58.63;101060.19;5035310;28;1764;-33
2022/02/20 00:35:02;;;;;;;;;;;;;;;19.24;57.94;101055.09;5036178;28;1051;-33
2022/02/20 00:37:28;;;;;;;;;;;;;;;19.29;57.77;101070.78;5034836;28;1931;-33
2022/02/20 00:39:56;;;;;;;;;;;;;;;19.27;57.75;101070.06;5035445;28;2012;-33
2022/02/20 00:42:23;;;;;;;;;;;;;;;19.25;57.67;101058.63;5035271;28;1906;-33
2022/02/20 00:44:49;;;;;;;;;;;;;;;19.23;57.69;101060.59;5035443;28;1637;-33
2022/02/20 00:47:16;;;;;;;;;;;;;;;19.22;58.29;101048.19;5035421;28;1782;-33
2022/02/20 00:49:42;;;;;;;;;;;;;;;19.24;57.94;101055.09;5035117;28;1517;-33
2022/02/20 00:52:08;;;;;;;;;;;;;;;19.23;57.83;101041.81;5034573;28;1530;-34
2022/02/20 00:54:35;;;;;;;;;;;;;;;19.23;57.75;101042.66;5035047;28;1494;-34
2022/02/20 00:57:03;;;;;;;;;;;;;;;19.24;57.74;101041.69;5035093;28;1820;-33
2022/02/20 00:59:29;;;;;;;;;;;;;;;19.21;57.40;101041.09;5035514;28;1075;-33
2022/02/20 01:01:56;;;;;;;;;;;;;;;19.22;57.67;101040.13;5034670;28;1943;-33
2022/02/20 01:04:22;;;;;;;;;;;;;;;19.22;57.39;101040.13;5026137;28;1587;-34
2022/02/20 01:06:48;;;;;;;;;;;;;;;19.22;57.66;101051.72;5031280;28;1552;-33
2022/02/20 01:09:15;;;;;;;;;;;;;;;19.22;57.48;101046.34;5034546;28;1760;-33
2022/02/20 01:11:41;;;;;;;;;;;;;;;19.20;58.22;101052.78;5034564;28;1815;-34
2022/02/20 01:14:09;;;;;;;;;;;;;;;19.18;58.12;101034.19;5034959;28;1065;-33
2022/02/20 01:16:36;;;;;;;;;;;;;;;19.20;57.88;101036.72;5033732;28;1708;-33
2022/02/20 01:19:02;;;;;;;;;;;;;;;19.17;57.40;101027.09;5034389;28;1658;-33
2022/02/20 01:21:29;;;;;;;;;;;;;;;19.18;57.34;101025.25;5034571;28;1883;-33
2022/02/20 01:23:55;;;;;;;;;;;;;;;19.17;57.38;101031.63;5034646;28;1846;-34
2022/02/20 01:26:22;;;;;;;;;;;;;;;19.17;57.60;101036.97;5034554;28;1743;-33
2022/02/20 01:28:48;;;;;;;;;;;;;;;19.18;57.51;101041.34;5032635;28;1103;-33
2022/02/20 01:31:16;;;;;;;;;;;;;;;19.19;57.28;101043.06;5034573;28;2193;-33
2022/02/20 01:33:42;;;;;;;;;;;;;;;19.18;57.70;101042.22;5028057;28;1631;-33
2022/02/20 01:36:09;;;;;;;;;;;;;;;19.19;58.00;101043.06;5034243;28;1591;-33
2022/02/20 01:38:35;;;;;;;;;;;;;;;19.18;58.36;101044.03;5034129;28;1742;-33
2022/02/20 01:41:02;;;;;;;;;;;;;;;19.15;58.06;101033.59;5034009;28;1513;-33
2022/02/20 01:43:29;;;;;;;;;;;;;;;19.17;57.66;101037.81;5034763;28;1973;-34
2022/02/20 01:45:55;;;;;;;;;;;;;;;19.16;58.02;101027.22;5033614;28;1659;-33
2022/02/20 01:48:23;;;;;;;;;;;;;;;19.14;57.55;101030.06;5032481;28;1582;-33
2022/02/20 01:50:50;;;;;;;;;;;;;;;19.19;58.05;101043.06;5029785;28;1644;-33
2022/02/20 01:53:16;;;;;;;;;;;;;;;19.16;57.52;101024.53;5034228;28;1851;-33
2022/02/20 01:55:43;;;;;;;;;;;;;;;19.16;57.22;101025.41;5034380;28;1272;-34
2022/02/20 01:58:10;;;;;;;;;;;;;;;19.12;57.53;101007.91;5033623;28;1897;-33
2022/02/20 02:00:36;;;;;;;;;;;;;;;19.12;57.75;101005.22;5033189;28;1989;-33
2022/02/20 02:03:03;;;;;;;;;;;;;;;19.12;57.70;101004.34;5033324;28;1906;-33
2022/02/20 02:05:30;;;;;;;;;;;;;;;19.11;57.19;101010.69;5033435;28;1717;-33
2022/02/20 02:07:57;;;;;;;;;;;;;;;19.11;57.22;101018.75;5033327;28;1828;-34
2022/02/20 02:10:23;;;;;;;;;;;;;;;19.12;58.13;101029.34;5033466;28;1769;-34
2022/02/20 02:12:50;;;;;;;;;;;;;;;19.14;57.68;101031.88;5033468;28;1757;-33
2022/02/20 02:15:16;;;;;;;;;;;;;;;19.10;58.10;101036.66;5032228;28;1655;-34
2022/02/20 02:17:43;;;;;;;;;;;;;;;19.10;58.07;101020.59;5033426;28;1135;-33
2022/02/20 02:20:10;;;;;;;;;;;;;;;19.10;57.12;101017.91;5033272;28;1952;-34
2022/02/20 02:22:38;;;;;;;;;;;;;;;19.11;57.85;101008.03;5033897;28;1906;-34
2022/02/20 02:25:06;;;;;;;;;;;;;;;19.10;57.98;101008.97;5032963;28;1501;-33
2022/02/20 02:27:32;;;;;;;;;;;;;;;19.11;57.35;101002.66;5033039;28;1689;-34
2022/02/20 02:29:59;;;;;;;;;;;;;;;19.12;58.22;101029.34;5033548;28;1962;-34
2022/02/20 02:32:25;;;;;;;;;;;;;;;19.10;58.27;101025.06;5028382;28;1516;-36
2022/02/20 02:34:52;;;;;;;;;;;;;;;19.12;57.44;101036.50;5033131;28;1476;-33
2022/02/20 02:37:19;;;;;;;;;;;;;;;19.08;57.73;101023.38;5033412;28;1939;-33
2022/02/20 02:39:47;;;;;;;;;;;;;;;19.08;57.07;101011.81;5029599;28;1564;-33
2022/02/20 02:42:13;;;;;;;;;;;;;;;19.10;57.27;101006.31;5033258;28;1914;-33
2022/02/20 02:44:40;;;;;;;;;;;;;;;19.10;57.06;101004.50;5032484;28;1566;-33
2022/02/20 02:47:07;;;;;;;;;;;;;;;19.11;57.16;101014.22;5032913;28;1433;-33
2022/02/20 02:49:34;;;;;;;;;;;;;;;19.09;57.18;100997.41;5032876;28;1735;-33
2022/02/20 02:52:00;;;;;;;;;;;;;;;19.05;57.99;101010.22;5033112;28;1798;-33
2022/02/20 02:54:27;;;;;;;;;;;;;;;19.05;57.66;101012.91;5032445;28;1610;-33
2022/02/20 02:56:55;;;;;;;;;;;;;;;19.08;57.73;101026.06;5033091;28;1764;-34
2022/02/20 02:59:21;;;;;;;;;;;;;;;19.14;56.94;101029.19;5029227;28;1087;-34
2022/02/20 03:01:50;;;;;;;;;;;;;;;19.08;57.89;101038.63;5150791;22;3809;-36
2022/02/20 03:04:17;;;;;;;;;;;;;;;19.06;58.01;101054.00;5041863;28;1536;-35
2022/02/20 03:06:43;;;;;;;;;;;;;;;19.06;57.54;101040.59;5043159;28;1498;-35
2022/02/20 03:09:10;;;;;;;;;;;;;;;19.05;57.74;101049.59;5042339;28;1608;-37
2022/02/20 03:11:37;;;;;;;;;;;;;;;19.08;57.16;101031.44;5044269;28;1090;-35
2022/02/20 03:14:05;;;;;;;;;;;;;;;19.07;57.52;101018.16;5047924;28;1999;-35
2022/02/20 03:16:31;;;;;;;;;;;;;;;19.05;57.22;101020.09;5042428;28;1728;-35
2022/02/20 03:18:58;;;;;;;;;;;;;;;19.08;57.48;101038.63;5044543;28;1783;-35
2022/02/20 03:21:24;;;;;;;;;;;;;;;19.04;57.76;101034.50;5045753;28;999;-35
2022/02/20 03:23:51;;;;;;;;;;;;;;;19.09;57.39;101048.34;5042324;28;1973;-35
2022/02/20 03:26:17;;;;;;;;;;;;;;;19.06;57.01;101045.94;5049826;28;1832;-35
2022/02/20 03:28:44;;;;;;;;;;;;;;;19.03;57.48;101041.66;5047810;28;1084;-35
2022/02/20 03:31:11;;;;;;;;;;;;;;;19.03;57.79;101047.03;5039665;28;1981;-35
2022/02/20 03:33:38;;;;;;;;;;;;;;;19.02;57.04;101042.66;5047821;28;1754;-36
2022/02/20 03:36:05;;;;;;;;;;;;;;;19.03;57.26;101022.91;5051248;28;1473;-35
2022/02/20 03:38:31;;;;;;;;;;;;;;;19.03;57.30;101025.59;5051335;28;1356;-35
2022/02/20 03:40:58;;;;;;;;;;;;;;;19.02;57.71;101026.59;5052857;28;1503;-35
2022/02/20 03:43:24;;;;;;;;;;;;;;;19.02;57.06;101040.00;5051886;28;1898;-35
2022/02/20 03:45:51;;;;;;;;;;;;;;;19.00;57.47;101027.66;5053113;28;2052;-35
2022/02/20 03:48:19;;;;;;;;;;;;;;;19.03;57.28;101038.16;5047216;28;1824;-36
2022/02/20 03:50:46;;;;;;;;;;;;;;;19.02;57.72;101039.13;5046289;28;1671;-35
2022/02/20 03:53:12;;;;;;;;;;;;;;;19.03;57.09;101041.66;5045493;28;1700;-37
2022/02/20 03:55:39;;;;;;;;;;;;;;;19.01;57.39;101049.00;5048112;28;1080;-35
2022/02/20 03:58:05;;;;;;;;;;;;;;;19.02;57.43;101053.38;5047654;28;1811;-35
2022/02/20 04:00:32;;;;;;;;;;;;;;;19.04;57.22;101048.75;5037029;28;1712;-35
2022/02/20 04:02:58;;;;;;;;;;;;;;;19.03;57.80;101060.44;5050496;28;1972;-35
2022/02/20 04:05:26;;;;;;;;;;;;;;;19.00;57.44;101046.44;5049960;28;1922;-35
2022/02/20 04:07:52;;;;;;;;;;;;;;;19.03;57.25;101046.19;5045991;28;1581;-35
2022/02/20 04:10:19;;;;;;;;;;;;;;;19.02;57.69;101045.34;5044271;28;1796;-35
2022/02/20 04:12:47;;;;;;;;;;;;;;;19.02;57.77;101044.47;5048580;28;1631;-35
2022/02/20 04:15:15;;;;;;;;;;;;;;;19.00;57.27;101049.13;5049505;28;1472;-36
2022/02/20 04:17:42;;;;;;;;;;;;;;;18.99;57.71;101047.44;5044758;28;1060;-35
2022/02/20 04:20:09;;;;;;;;;;;;;;;18.99;57.48;101050.94;5049175;28;1907;-35
2022/02/20 04:22:37;;;;;;;;;;;;;;;19.03;56.95;101059.59;5043795;28;1902;-35
2022/02/20 04:25:04;;;;;;;;;;;;;;;18.96;57.83;101053.91;5037610;28;998;-35
2022/02/20 04:27:30;;;;;;;;;;;;;;;18.97;57.76;101066.31;5047091;28;1930;-35
2022/02/20 04:29:57;;;;;;;;;;;;;;;18.97;57.15;101058.28;5037871;28;1506;-35
2022/02/20 04:32:23;;;;;;;;;;;;;;;18.99;57.70;101053.63;5054219;28;1431;-35
2022/02/20 04:34:50;;;;;;;;;;;;;;;19.00;57.14;101047.31;5044188;28;1883;-35
2022/02/20 04:37:16;;;;;;;;;;;;;;;18.97;57.09;101044.03;5049240;28;1853;-35
2022/02/20 04:39:44;;;;;;;;;;;;;;;18.99;57.09;101040.22;5045887;28;2026;-35
2022/02/20 04:42:10;;;;;;;;;;;;;;;19.02;57.67;101049.84;5044939;28;1993;-35
2022/02/20 04:44:37;;;;;;;;;;;;;;;18.97;57.18;101047.56;5046739;28;1808;-34
2022/02/20 04:47:04;;;;;;;;;;;;;;;18.97;57.24;101057.44;5054857;28;1282;-35
2022/02/20 04:49:30;;;;;;;;;;;;;;;18.97;57.14;101058.28;5043485;28;1755;-35
2022/02/20 04:51:57;;;;;;;;;;;;;;;18.97;56.69;101082.38;5047959;28;1443;-35
2022/02/20 04:54:23;;;;;;;;;;;;;;;18.97;57.21;101079.72;5044087;28;1843;-35
2022/02/20 04:56:51;;;;;;;;;;;;;;;18.99;57.71;101083.13;5045329;28;1657;-35
2022/02/20 04:59:18;;;;;;;;;;;;;;;18.97;57.44;101076.19;5044721;28;1468;-34
2022/02/20 05:01:44;;;;;;;;;;;;;;;18.94;57.74;101066.59;5040153;28;1843;-36
2022/02/20 05:04:11;;;;;;;;;;;;;;;18.97;57.53;101082.38;5047199;28;1906;-35
2022/02/20 05:06:37;;;;;;;;;;;;;;;18.97;56.92;101089.59;5045451;28;1753;-35
2022/02/20 05:09:04;;;;;;;;;;;;;;;18.93;57.41;101094.34;5046196;28;1151;-34
2022/02/20 05:11:30;;;;;;;;;;;;;;;18.94;57.77;101098.75;5046135;28;1901;-36
2022/02/20 05:13:59;;;;;;;;;;;;;;;19.18;58.73;101109.25;5046590;28;1997;-35
2022/02/20 05:16:26;;;;;;;;;;;;;;;19.87;57.26;101094.47;5040731;28;1852;-35
2022/02/20 05:18:52;;;;;;;;;;;;;;;20.34;55.24;101110.09;5046026;28;1325;-35
2022/02/20 05:21:19;;;;;;;;;;;;;;;20.68;55.74;101123.25;5045691;28;1062;-34
2022/02/20 05:23:46;;;;;;;;;;;;;;;20.77;54.75;101127.78;5045391;28;1977;-35
2022/02/20 05:26:13;;;;;;;;;;;;;;;20.88;56.17;101091.88;5041512;28;1839;-35
2022/02/20 05:28:40;;;;;;;;;;;;;;;21.11;54.93;101114.81;5041678;28;1263;-36
2022/02/20 05:31:07;;;;;;;;;;;;;;;21.03;55.37;101114.69;5044117;28;1382;-35
2022/02/20 05:33:34;;;;;;;;;;;;;;;21.15;55.28;101128.81;5042027;28;1648;-35
2022/02/20 05:36:01;;;;;;;;;;;;;;;21.11;54.95;101117.50;5040918;28;1504;-35
2022/02/20 05:38:27;;;;;;;;;;;;;;;21.14;54.55;101116.38;5044323;28;1438;-35
2022/02/20 05:40:53;;;;;;;;;;;;;;;21.26;54.41;101126.81;5042605;28;1583;-35
2022/02/20 05:43:20;;;;;;;;;;;;;;;21.19;54.29;101135.63;5041453;28;1906;-35
2022/02/20 05:45:46;;;;;;;;;;;;;;;21.05;55.52;101116.22;5040099;28;1261;-35
2022/02/20 05:48:16;;;;;;;;;;;;;;;20.93;55.65;101163.06;5044994;28;1961;-35
2022/02/20 05:50:43;;;;;;;;;;;;;;;20.85;55.05;101149.47;5044508;28;1804;-35
2022/02/20 05:53:09;;;;;;;;;;;;;;;20.84;55.93;101151.28;5046513;28;1651;-36
2022/02/20 05:55:37;;;;;;;;;;;;;;;20.80;55.78;101119.44;5047484;28;1488;-35
2022/02/20 05:58:03;;;;;;;;;;;;;;;20.71;56.04;101131.00;5039047;28;1598;-35
2022/02/20 06:00:30;;;;;;;;;;;;;;;20.59;57.07;101143.72;5043667;28;1598;-36
2022/02/20 06:02:56;;;;;;;;;;;;;;;20.54;57.29;101137.88;5045082;28;2008;-35
2022/02/20 06:05:24;;;;;;;;;;;;;;;20.52;56.29;101138.00;5058473;28;1808;-35
2022/02/20 06:07:51;;;;;;;;;;;;;;;20.46;56.70;101143.94;5048568;28;1694;-35
2022/02/20 06:10:17;;;;;;;;;;;;;;;20.43;56.31;101138.81;5047032;28;1682;-34
2022/02/20 06:12:44;;;;;;;;;;;;;;;20.34;56.66;101142.34;5051282;28;1495;-34
2022/02/20 06:15:10;;;;;;;;;;;;;;;20.28;57.53;101130.28;5039803;28;1052;-34
2022/02/20 06:17:37;;;;;;;;;;;;;;;20.20;56.49;101143.53;5045190;28;1747;-35
2022/02/20 06:20:04;;;;;;;;;;;;;;;20.15;56.81;101157.34;5039978;28;1771;-34
2022/02/20 06:22:31;;;;;;;;;;;;;;;20.11;57.44;101150.56;5064963;28;1613;-35
2022/02/20 06:24:58;;;;;;;;;;;;;;;20.05;57.71;101148.41;5039093;28;1906;-35
2022/02/20 06:27:24;;;;;;;;;;;;;;;20.02;57.70;101152.22;5047778;28;1830;-36
2022/02/20 06:29:51;;;;;;;;;;;;;;;20.00;57.69;101154.19;5033733;28;1795;-35
2022/02/20 06:32:17;;;;;;;;;;;;;;;19.94;57.09;101159.25;5044734;28;1533;-33
2022/02/20 06:34:44;;;;;;;;;;;;;;;19.88;57.22;101154.41;5047614;28;1948;-33
2022/02/20 06:37:11;;;;;;;;;;;;;;;19.95;57.71;101155.56;5041741;28;1858;-33
2022/02/20 06:39:44;;;;;;;;;;;;;;;19.88;57.23;101163.28;5057678;28;1603;-33
2022/02/20 06:42:11;;;;;;;;;;;;;;;19.88;57.14;101173.19;5045707;28;1602;-33
2022/02/20 06:44:37;;;;;;;;;;;;;;;19.91;56.99;101178.28;5041896;28;1909;-33
2022/02/20 06:47:04;;;;;;;;;;;;;;;19.91;57.01;101180.97;5048744;28;1374;-33
2022/02/20 06:49:30;;;;;;;;;;;;;;;19.99;58.12;101183.84;5051573;28;1597;-31
2022/02/20 06:51:57;;;;;;;;;;;;;;;19.95;57.75;101175.19;5054406;28;1597;-33
2022/02/20 06:54:27;;;;;;;;;;;;;;;19.92;57.39;101198.78;5055235;28;1475;-33
2022/02/20 06:56:55;;;;;;;;;;;;;;;19.84;57.08;101181.47;5053516;28;1535;-33
2022/02/20 06:59:21;;;;;;;;;;;;;;;19.80;57.93;101180.06;5039902;28;1302;-33
2022/02/20 07:01:48;;;;;;;;;;;;;;;19.79;57.73;101185.53;5045222;28;1425;-33
2022/02/20 07:04:15;;;;;;;;;;;;;;;19.84;58.15;101186.00;5039991;28;1993;-33
2022/02/20 07:06:42;;;;;;;;;;;;;;;19.84;57.59;101170.75;5045728;28;1620;-33
2022/02/20 07:09:09;;;;;;;;;;;;;;;19.77;58.17;101174.94;5037499;28;1270;-33
2022/02/20 07:11:36;;;;;;;;;;;;;;;19.84;58.82;101181.47;5038204;28;1288;-33
2022/02/20 07:14:04;;;;;;;;;;;;;;;19.77;56.46;101161.50;5049898;28;1653;-33
2022/02/20 07:16:31;;;;;;;;;;;;;;;19.72;58.70;101158.38;5046621;28;1606;-32
2022/02/20 07:18:57;;;;;;;;;;;;;;;19.74;58.51;101155.56;5045157;28;1591;-33
2022/02/20 07:21:24;;;;;;;;;;;;;;;19.75;57.68;101147.38;5062574;28;1587;-33
2022/02/20 07:23:50;;;;;;;;;;;;;;;19.71;58.55;101148.63;5047497;28;1910;-33
2022/02/20 07:26:17;;;;;;;;;;;;;;;19.86;58.96;101160.72;5042967;28;1648;-33
2022/02/20 07:28:43;;;;;;;;;;;;;;;20.27;58.26;101155.44;5043472;28;1446;-33
2022/02/20 07:31:11;;;;;;;;;;;;;;;20.56;56.98;101165.47;5040393;28;1569;-33
2022/02/20 07:33:37;;;;;;;;;;;;;;;20.70;56.89;101164.25;5012741;28;12239;-32
2022/02/20 07:36:04;;;;;;;;;;;;;;;20.85;57.44;101165.59;5031298;28;1589;-33
2022/02/20 07:38:31;;;;;;;;;;;;;;;20.85;55.86;101173.66;5040767;28;1614;-33
2022/02/20 07:40:58;;;;;;;;;;;;;;;21.07;55.53;101175.25;5046293;28;1685;-33
2022/02/20 07:43:25;;;;;;;;;;;;;;;21.18;55.84;101150.06;5042164;28;1898;-33
2022/02/20 07:45:51;;;;;;;;;;;;;;;21.23;55.69;101151.34;5039192;28;1630;-33
2022/02/20 07:48:19;;;;;;;;;;;;;;;20.93;57.42;101162.19;5047926;28;1421;-34
2022/02/20 07:50:46;;;;;;;;;;;;;;;20.63;56.65;101167.50;5049455;28;1804;-33
2022/02/20 07:53:12;;;;;;;;;;;;;;;20.74;55.31;101165.69;5044026;28;1908;-35
2022/02/20 07:55:39;;;;;;;;;;;;;;;20.76;56.19;101166.41;5055830;28;1632;-33
2022/02/20 07:58:07;;;;;;;;;;;;;;;20.61;56.67;101156.03;5043263;28;1811;-33
2022/02/20 08:00:34;;;;;;;;;;;;;;;20.63;57.19;101134.38;5060180;28;1933;-34
2022/02/20 08:03:02;;;;;;;;;;;;;;;20.54;56.45;101144.09;5046138;28;1527;-33
2022/02/20 08:05:29;;;;;;;;;;;;;;;20.46;56.77;101128.66;5055783;28;1961;-34
2022/02/20 08:07:56;;;;;;;;;;;;;;;20.59;56.97;101120.41;5060475;28;1496;-33
2022/02/20 08:10:23;;;;;;;;;;;;;;;20.46;57.68;101123.28;5050409;28;1733;-33
2022/02/20 08:12:49;;;;;;;;;;;;;;;20.33;57.81;101113.75;5045297;28;1543;-34
2022/02/20 08:15:16;;;;;;;;;;;;;;;20.32;58.84;101110.22;5053298;28;1650;-33
2022/02/20 08:17:44;;;;;;;;;;;;;;;20.22;58.09;101104.81;5051195;28;1316;-33
2022/02/20 08:20:11;;;;;;;;;;;;;;;20.22;58.59;101107.50;5048188;28;1920;-34
2022/02/20 08:22:39;;;;;;;;;;;;;;;20.14;59.49;101126.13;5063321;28;1495;-34
2022/02/20 08:25:05;;;;;;;;;;;;;;;20.16;59.77;101129.53;5051321;28;1945;-33
2022/02/20 08:27:33;;;;;;;;;;;;;;;20.01;58.65;101120.13;5047442;28;1668;-33
2022/02/20 08:30:00;;;;;;;;;;;;;;;20.07;58.58;101135.69;5053248;28;1624;-33
2022/02/20 08:32:26;;;;;;;;;;;;;;;20.25;58.76;101131.41;5042023;28;1594;-33
2022/02/20 08:34:55;;;;;;;;;;;;;;;19.70;58.17;101143.38;5060629;28;1479;-33
2022/02/20 08:37:23;;;;;;;;;;;;;;;19.86;57.26;101123.16;5050326;28;1944;-33
2022/02/20 08:39:54;;;;;;;;;;;;;;;19.94;57.75;101132.41;5054350;28;1871;-33
2022/02/20 08:42:24;;;;;;;;;;;;;;;20.00;58.61;101111.22;5046383;28;1471;-33
2022/02/20 08:44:51;;;;;;;;;;;;;;;19.96;58.80;101122.38;5042939;28;1967;-34
2022/02/20 08:47:18;;;;;;;;;;;;;;;19.94;59.20;101116.28;5053540;28;1482;-33
2022/02/20 08:49:47;;;;;;;;;;;;;;;19.88;58.92;101111.47;5041340;28;1575;-33
2022/02/20 08:52:17;;;;;;;;;;;;;;;20.02;58.92;101105.72;5056788;28;1557;-34
2022/02/20 08:54:48;;;;;;;;;;;;;;;20.19;58.16;101083.63;5061136;28;1658;-33
2022/02/20 08:57:21;;;;;;;;;;;;;;;20.19;56.55;101082.75;5043788;28;1666;-33
2022/02/20 08:59:49;;;;;;;;;;;;;;;20.11;59.02;101083.44;5053647;28;1572;-34
2022/02/20 09:02:24;;;;;;;;;;;;;;;20.17;58.03;101084.72;5049865;28;1938;-34
2022/02/20 09:04:53;;;;;;;;;;;;;;;20.03;57.63;101056.41;5048124;28;1906;-33
2022/02/20 09:07:22;;;;;;;;;;;;;;;19.99;58.41;101061.19;5046973;28;1431;-33
2022/02/20 09:09:48;;;;;;;;;;;;;;;19.97;57.30;101052.44;5054258;28;1630;-33
2022/02/20 09:12:16;;;;;;;;;;;;;;;19.97;57.95;101062.31;5049587;28;1563;-34
2022/02/20 09:14:44;;;;;;;;;;;;;;;20.00;58.26;101056.69;5046757;28;1304;-33
2022/02/20 09:17:12;;;;;;;;;;;;;;;19.95;58.35;101050.88;5046700;28;2056;-34
2022/02/20 09:19:39;;;;;;;;;;;;;;;19.83;58.02;101050.94;5046074;28;1630;-34
2022/02/20 09:22:09;;;;;;;;;;;;;;;19.86;58.51;101041.81;5046769;28;1481;-33
2022/02/20 09:24:37;;;;;;;;;;;;;;;19.82;57.81;101043.91;5044162;28;1976;-34
2022/02/20 09:27:03;;;;;;;;;;;;;;;19.81;58.07;101042.19;5042440;28;1512;-34
2022/02/20 09:29:33;;;;;;;;;;;;;;;19.85;58.19;101061.56;5042533;28;1455;-34
2022/02/20 09:32:04;;;;;;;;;;;;;;;19.91;57.58;101057.50;5044841;28;1468;-34
2022/02/20 09:34:32;;;;;;;;;;;;;;;19.94;57.72;101062.59;5043398;28;1429;-34
2022/02/20 09:37:01;;;;;;;;;;;;;;;20.04;57.06;101058.13;5046002;28;1739;-33
2022/02/20 09:39:36;;;;;;;;;;;;;;;20.07;56.92;101060.53;5047047;28;2111;-34
2022/02/20 09:42:04;;;;;;;;;;;;;;;19.85;56.62;101059.72;5044949;28;1468;-34
2022/02/20 09:44:33;;;;;;;;;;;;;;;19.87;55.01;101046.16;5047721;28;1977;-33
2022/02/20 09:47:06;;;;;;;;;;;;;;;19.90;55.66;101040.53;5045291;28;1994;-33
2022/02/20 09:49:35;;;;;;;;;;;;;;;19.86;55.44;101052.53;5041134;28;1637;-33
2022/02/20 09:52:08;;;;;;;;;;;;;;;19.76;55.21;101044.44;5038915;28;1531;-33
2022/02/20 09:54:39;;;;;;;;;;;;;;;19.86;56.79;101039.97;5048331;28;1673;-33
2022/02/20 09:57:08;;;;;;;;;;;;;;;19.71;55.52;101030.56;5044357;28;1392;-33
2022/02/20 09:59:35;;;;;;;;;;;;;;;19.86;57.23;101029.22;5054508;28;1667;-33
2022/02/20 10:02:07;;;;;;;;;;;;;;;19.99;56.43;101023.59;5045928;28;2298;-33
2022/02/20 10:04:40;;;;;;;;;;;;;;;20.12;55.98;101035.97;5045179;28;1915;-34
2022/02/20 10:07:08;;;;;;;;;;;;;;;20.08;56.66;101021.97;5045326;28;1439;-33
2022/02/20 10:09:41;;;;;;;;;;;;;;;20.20;56.92;101038.81;5043495;28;1468;-34
2022/02/20 10:12:20;;;;;;;;;;;;;;;20.31;57.17;101035.16;5045058;28;1347;-35
2022/02/20 10:14:51;;;;;;;;;;;;;;;20.34;57.04;101048.34;5060546;28;1486;-33
2022/02/20 10:17:30;;;;;;;;;;;;;;;20.32;57.09;101048.47;5057015;28;1758;-34
2022/02/20 10:20:01;;;;;;;;;;;;;;;20.36;56.78;101019.50;5047892;28;1924;-36
2022/02/20 10:22:39;;;;;;;;;;;;;;;20.41;57.58;101023.47;5049050;28;1628;-35
2022/02/20 10:25:10;;;;;;;;;;;;;;;20.40;57.30;101031.66;5037571;28;1910;-35
2022/02/20 10:27:47;;;;;;;;;;;;;;;20.42;57.20;101025.16;5042516;28;1460;-35
2022/02/20 10:30:20;;;;;;;;;;;;;;;20.50;57.65;101029.84;5042852;28;1449;-35
2022/02/20 10:33:02;;;;;;;;;;;;;;;20.41;56.14;101015.41;5037485;28;1659;-36
2022/02/20 10:35:34;;;;;;;;;;;;;;;20.44;57.93;101041.13;5043370;28;1527;-35
2022/02/20 10:38:05;;;;;;;;;;;;;;;20.48;56.93;101039.03;5039356;28;1653;-34
2022/02/20 10:40:33;;;;;;;;;;;;;;;20.43;57.51;101042.13;5035416;28;1455;-34
2022/02/20 10:43:03;;;;;;;;;;;;;;;20.44;57.94;101038.44;5040603;28;1546;-35
2022/02/20 10:45:32;;;;;;;;;;;;;;;20.30;56.56;101052.28;5040692;28;1965;-33
2022/02/20 10:48:05;;;;;;;;;;;;;;;20.43;55.04;101036.75;5037066;28;1958;-34
2022/02/20 10:50:32;;;;;;;;;;;;;;;20.50;56.79;101032.53;5038076;28;1658;-33
2022/02/20 10:53:06;;;;;;;;;;;;;;;20.36;56.00;101038.28;5032322;28;1839;-33
2022/02/20 10:55:35;;;;;;;;;;;;;;;20.22;55.87;101035.00;5037957;28;1542;-33
2022/02/20 10:58:08;;;;;;;;;;;;;;;20.10;57.00;101014.63;5037500;28;1945;-33
2022/02/20 11:00:34;;;;;;;;;;;;;;;20.03;56.74;101013.47;5036882;28;1437;-33
2022/02/20 11:03:11;;;;;;;;;;;;;;;20.09;56.72;101010.22;5043000;28;1426;-33
2022/02/20 11:05:39;;;;;;;;;;;;;;;20.08;56.74;101000.50;5040996;28;1917;-33
2022/02/20 11:08:06;;;;;;;;;;;;;;;20.07;56.23;101009.50;5039144;28;1539;-33
2022/02/20 11:10:40;;;;;;;;;;;;;;;20.08;57.26;101008.53;5041692;28;1628;-33
2022/02/20 11:13:08;;;;;;;;;;;;;;;20.09;57.01;101015.59;5033361;28;1664;-33
2022/02/20 11:15:39;;;;;;;;;;;;;;;20.04;57.54;100999.06;5035841;28;1775;-33
2022/02/20 11:18:06;;;;;;;;;;;;;;;20.07;56.91;101004.13;5040221;28;1586;-34
2022/02/20 11:20:35;;;;;;;;;;;;;;;20.04;57.17;100999.06;5041221;28;1222;-33
2022/02/20 11:23:02;;;;;;;;;;;;;;;20.01;57.18;100984.06;5034616;28;1767;-33
2022/02/20 11:25:30;;;;;;;;;;;;;;;19.95;58.45;100976.56;5032654;28;1906;-33
2022/02/20 11:27:58;;;;;;;;;;;;;;;19.94;58.00;100969.50;5038230;28;1934;-33
2022/02/20 11:30:24;;;;;;;;;;;;;;;20.00;57.70;100973.47;5038924;28;1592;-33
2022/02/20 11:32:51;;;;;;;;;;;;;;;20.01;58.66;100967.94;5043464;28;1209;-33
2022/02/20 11:35:19;;;;;;;;;;;;;;;19.95;58.59;100951.56;5048169;28;1826;-33
2022/02/20 11:37:48;;;;;;;;;;;;;;;19.98;58.74;100951.28;5045337;28;1745;-33
2022/02/20 11:40:16;;;;;;;;;;;;;;;19.98;58.78;100954.81;5041909;28;1855;-35
2022/02/20 11:42:57;;;;;;;;;;;;;;;19.96;58.28;100953.28;5046563;28;1625;-33
2022/02/20 11:45:24;;;;;;;;;;;;;;;19.96;57.86;100947.91;5043934;28;1906;-33
2022/02/20 11:48:01;;;;;;;;;;;;;;;20.00;57.86;100955.53;5047020;28;1332;-33
2022/02/20 11:50:34;;;;;;;;;;;;;;;19.98;57.97;100932.50;5042698;28;1342;-33
2022/02/20 11:53:04;;;;;;;;;;;;;;;20.02;58.33;100941.97;5045965;28;1274;-33
2022/02/20 11:55:32;;;;;;;;;;;;;;;19.98;58.60;100936.03;5040855;28;1755;-33
2022/02/20 11:58:23;;;;;;;;;;;;;;;19.97;59.38;100939.69;5047122;28;1538;-33
2022/02/20 12:01:05;;;;;;;;;;;;;;;19.98;58.11;100940.56;5046915;28;1465;-33
2022/02/20 12:03:31;;;;;;;;;;;;;;;19.96;58.29;100935.31;5043250;28;1557;-33
2022/02/20 12:06:18;;;;;;;;;;;;;;;19.99;59.44;100931.50;5044035;28;1988;-33
2022/02/20 12:08:46;;;;;;;;;;;;;;;19.96;59.36;100932.63;5042684;28;1779;-33
2022/02/20 12:11:13;;;;;;;;;;;;;;;19.95;58.35;100927.41;5044312;28;1532;-33
2022/02/20 12:13:46;;;;;;;;;;;;;;;19.98;58.54;100921.78;5043815;28;1936;-33
2022/02/20 12:16:27;;;;;;;;;;;;;;;19.93;58.50;100915.97;5043753;28;1497;-33
2022/02/20 12:19:14;;;;;;;;;;;;;;;19.93;58.25;100916.78;5044126;28;1632;-34
2022/02/20 12:22:10;;;;;;;;;;;;;;;19.90;58.39;100916.25;5041095;28;2362;-33
2022/02/20 12:24:47;;;;;;;;;;;;;;;19.90;59.66;100902.84;4977329;28;1974;-33
2022/02/20 12:27:14;;;;;;;;;;;;;;;19.96;59.37;100915.69;5034642;28;1455;-33
2022/02/20 12:29:46;;;;;;;;;;;;;;;19.97;59.47;100906.63;5055802;28;1682;-33
2022/02/20 12:32:16;;;;;;;;;;;;;;;19.88;59.57;100897.59;5048001;28;1037;-33
2022/02/20 12:34:53;;;;;;;;;;;;;;;19.88;59.75;100912.84;5046749;28;1822;-33
2022/02/20 12:37:20;;;;;;;;;;;;;;;19.91;59.65;100908.03;5047268;28;1665;-33
2022/02/20 12:39:52;;;;;;;;;;;;;;;19.90;59.81;100903.66;5046354;28;1841;-33
2022/02/20 12:42:19;;;;;;;;;;;;;;;19.88;59.79;100891.38;5051196;28;1638;-34
2022/02/20 12:44:45;;;;;;;;;;;;;;;19.84;59.80;100902.38;5044101;28;1911;-33
2022/02/20 12:47:12;;;;;;;;;;;;;;;19.88;59.77;100891.38;5044458;28;1464;-33
2022/02/20 12:49:39;;;;;;;;;;;;;;;19.87;59.67;100887.81;5045104;28;1451;-33
2022/02/20 12:52:06;;;;;;;;;;;;;;;19.90;59.75;100894.78;5042566;28;1687;-33